KCNM/CNM METAR and TAF weather

Enter ICAO airport designator
Station Type Date Time Source
KCNM METAR 2022/01/29 10:53 UTC NOAA

KCNM 291053Z AUTO 30003KT 10SM CLR M06/M12 A3038 RMK AO2 SLP288 T10561122 $


Station Type Date Time Source
KCNM Decoded METAR 2022/01/29 10:53 UTC NOAA

CARLSBAD CAVERN CITY, NM, United States (KCNM) 32-20N 104-16W 985M
Jan 29, 2022 - 05:53 AM EST / 2022.01.29 1053 UTC
Wind: from the WNW (300 degrees) at 3 MPH (3 KT):0
Visibility: 10 mile(s):0
Sky conditions: clear
Temperature: 21.9 F (-5.6 C)
Dew Point: 10.0 F (-12.2 C)
Relative Humidity: 59%
Pressure (altimeter): 30.38 in. Hg (1028 hPa)
ob: KCNM 291053Z AUTO 30003KT 10SM CLR M06/M12 A3038 RMK AO2 SLP288 T10561122
cycle: 11

Station Type Date Time Source
KCNM TAF 2022/01/29 12:22 UTC NOAA

TAF KCNM 291120Z 2912/3012 21006KT P6SM SKC
FM291800 17008KT P6SM SKC

Example: see airport list